Time;durP1;ratioP1;P1;durP2;ratioP2;P2;SDS_P1;SDS_P2;PMS_P1;PMS_P2;Temp;Humidity;BMP_temperature;BMP_pressure;BME280_temperature;BME280_humidity;BME280_pressure;Samples;Min_cycle;Max_cycle;Signal;HPM_P1;HPM_P2
2023/03/11 00:00:40;;;;;;;2.97;1.42;;;;;;;13.37;46.88;98917.59;4901085;29;20048;-67
2023/03/11 00:03:08;;;;;;;2.05;1.00;;;;;;;13.31;48.52;98907.97;4918657;29;20514;-67
2023/03/11 00:05:39;;;;;;;3.85;1.63;;;;;;;13.09;48.18;98900.94;4918814;29;20048;-67
2023/03/11 00:08:10;;;;;;;2.38;1.48;;;;;;;13.01;47.86;98914.38;4918744;29;20063;-67
2023/03/11 00:10:41;;;;;;;2.63;1.17;;;;;;;13.09;47.97;98918.19;4932085;29;20100;-67
2023/03/11 00:13:11;;;;;;;2.35;1.40;;;;;;;13.14;48.92;98922.66;4937439;29;20055;-67
2023/03/11 00:15:39;;;;;;;8.02;1.52;;;;;;;13.09;48.54;98920.16;4937442;29;20051;-67
2023/03/11 00:18:07;;;;;;;1.92;1.00;;;;;;;13.06;47.83;98910.63;4937608;29;20048;-67
2023/03/11 00:20:38;;;;;;;1.25;0.95;;;;;;;13.14;47.51;98904.25;4936963;29;20402;-67
2023/03/11 00:23:07;;;;;;;2.35;0.90;;;;;;;13.12;46.98;98902.97;4935807;29;20047;-67
2023/03/11 00:25:37;;;;;;;3.30;1.27;;;;;;;13.10;50.54;98914.28;4937327;29;20110;-67
2023/03/11 00:28:09;;;;;;;3.63;0.98;;;;;;;13.07;47.59;98906.75;4937411;29;20050;-67
2023/03/11 00:30:38;;;;;;;2.15;0.88;;;;;;;13.14;47.29;98917.16;4924538;29;20110;-67
2023/03/11 00:33:08;;;;;;;2.63;0.90;;;;;;;13.10;46.75;98908.81;4918111;29;20055;-67
2023/03/11 00:35:35;;;;;;;1.38;1.02;;;;;;;13.10;48.44;98897.81;4918249;29;20464;-67
2023/03/11 00:38:06;;;;;;;1.75;0.90;;;;;;;12.85;48.26;98896.94;4918313;29;20052;-67
2023/03/11 00:40:35;;;;;;;0.63;0.63;;;;;;;12.94;47.86;98921.56;4901130;29;20051;-67
2023/03/11 00:43:03;;;;;;;1.30;0.60;;;;;;;12.98;46.75;98912.31;4918215;29;20055;-67
2023/03/11 00:45:31;;;;;;;3.85;1.08;;;;;;;12.98;47.96;98911.50;4900842;29;20048;-67
2023/03/11 00:48:00;;;;;;;3.47;0.98;;;;;;;12.99;48.37;98915.84;4918085;29;20044;-67
2023/03/11 00:50:31;;;;;;;0.95;0.73;;;;;;;13.09;49.27;98907.19;4900875;29;20478;-66
2023/03/11 00:53:00;;;;;;;1.25;0.77;;;;;;;13.00;48.92;98904.53;4917788;29;20139;-67
2023/03/11 00:55:33;;;;;;;2.08;0.75;;;;;;;13.03;48.13;98892.06;4901172;29;20045;-67
2023/03/11 00:58:05;;;;;;;1.60;0.75;;;;;;;13.12;49.05;98881.81;4900494;29;20044;-68
2023/03/11 01:00:43;;;;;;;1.13;0.85;;;;;;;13.06;48.10;98883.19;4932234;29;20070;-67
2023/03/11 01:03:11;;;;;;;1.95;0.70;;;;;;;12.99;49.12;98891.13;4936783;29;20059;-67
2023/03/11 01:05:39;;;;;;;4.10;0.88;;;;;;;12.95;47.78;98887.47;4936711;29;20051;-67
2023/03/11 01:08:07;;;;;;;2.58;0.95;;;;;;;12.83;49.06;98882.72;4936314;29;20399;-67
2023/03/11 01:10:35;;;;;;;1.42;1.00;;;;;;;12.84;47.90;98879.66;4919054;29;20051;-67
2023/03/11 01:13:03;;;;;;;1.40;1.05;;;;;;;12.77;48.65;98873.91;4918884;29;20039;-67
2023/03/11 01:15:35;;;;;;;2.42;1.00;;;;;;;12.74;47.45;98863.59;4919441;29;20050;-67
2023/03/11 01:18:05;;;;;;;2.78;1.20;;;;;;;12.68;47.34;98857.53;4919517;29;20059;-68
2023/03/11 01:20:35;;;;;;;1.05;0.93;;;;;;;12.46;49.10;98862.22;4919121;29;20055;-68
2023/03/11 01:23:05;;;;;;;3.78;0.95;;;;;;;12.45;47.77;98863.34;4936444;29;20117;-68
2023/03/11 01:25:33;;;;;;;1.40;0.88;;;;;;;12.45;49.28;98851.56;4936400;29;20055;-67
2023/03/11 01:28:01;;;;;;;1.73;0.80;;;;;;;12.44;47.80;98867.25;4936330;29;20044;-68
2023/03/11 01:30:30;;;;;;;2.45;1.05;;;;;;;12.35;50.11;98853.59;4935788;29;20058;-67
2023/03/11 01:32:58;;;;;;;2.38;1.02;;;;;;;12.33;49.57;98838.59;4936124;29;20054;-67
2023/03/11 01:35:27;;;;;;;4.30;0.90;;;;;;;12.36;49.04;98827.75;4936205;29;20059;-67
2023/03/11 01:37:57;;;;;;;1.33;0.90;;;;;;;12.34;48.33;98827.31;4936169;29;20051;-67
2023/03/11 01:40:31;;;;;;;1.38;1.00;;;;;;;12.29;50.20;98833.00;4935811;29;20490;-68
2023/03/11 01:43:04;;;;;;;1.60;0.68;;;;;;;12.38;50.63;98821.94;4919158;29;20048;-67
2023/03/11 01:45:36;;;;;;;1.80;0.63;;;;;;;12.28;51.20;98803.97;4919059;29;20039;-67
2023/03/11 01:48:04;;;;;;;0.68;0.68;;;;;;;12.25;52.36;98807.34;4918688;29;20043;-67
2023/03/11 01:50:40;;;;;;;1.40;0.90;;;;;;;12.28;50.00;98801.22;4918639;29;20044;-67
2023/03/11 01:53:09;;;;;;;2.58;0.88;;;;;;;12.35;49.95;98822.59;4935701;29;20044;-67
2023/03/11 01:55:39;;;;;;;1.17;0.82;;;;;;;12.33;50.84;98831.16;4918529;29;20048;-68
2023/03/11 01:58:13;;;;;;;0.73;0.68;;;;;;;12.36;51.46;98822.28;4918440;29;20055;-67
2023/03/11 02:00:42;;;;;;;1.00;0.80;;;;;;;12.22;49.65;98821.75;4902815;29;20066;-67
2023/03/11 02:03:40;;;;;;;2.33;0.82;;;;;;;12.23;49.46;98831.59;4935450;29;20482;-67
2023/03/11 02:06:20;;;;;;;1.60;1.10;;;;;;;12.12;49.27;98806.47;4903825;29;20059;-67
2023/03/11 02:08:49;;;;;;;1.40;1.20;;;;;;;11.91;51.00;98807.25;4907346;29;20479;-67
2023/03/11 02:11:23;;;;;;;2.45;1.30;;;;;;;11.80;52.22;98817.81;4898688;29;20064;-67
2023/03/11 02:13:55;;;;;;;3.30;2.10;;;;;;;11.53;55.15;98808.09;4899403;29;20051;-67
2023/03/11 02:16:25;;;;;;;3.20;2.60;;;;;;;11.46;55.15;98791.38;4899162;29;20056;-67
2023/03/11 02:18:53;;;;;;;8.80;3.33;;;;;;;11.41;56.75;98773.19;4883551;29;20048;-67
2023/03/11 02:21:27;;;;;;;4.30;3.03;;;;;;;11.28;58.13;98769.56;4917323;29;20404;-67
2023/03/11 02:24:17;;;;;;;6.78;3.80;;;;;;;11.08;59.08;98768.34;4899380;29;20059;-67
2023/03/11 02:27:05;;;;;;;5.70;3.28;;;;;;;11.08;59.69;98776.56;4916321;29;20055;-67
2023/03/11 02:29:34;;;;;;;6.35;3.15;;;;;;;11.18;59.03;98781.69;4899127;29;20044;-67
2023/03/11 02:32:05;;;;;;;5.93;3.75;;;;;;;11.20;58.36;98789.56;4915959;29;20052;-67
2023/03/11 02:34:36;;;;;;;7.00;3.67;;;;;;;11.16;58.62;98778.47;4899273;29;20139;-67
2023/03/11 02:37:07;;;;;;;4.70;3.38;;;;;;;11.08;58.97;98795.72;4916108;29;20048;-67
2023/03/11 02:39:39;;;;;;;5.03;2.95;;;;;;;10.99;59.83;98798.47;4899188;29;20507;-68
2023/03/11 02:42:31;;;;;;;3.20;2.90;;;;;;;10.97;59.76;98771.47;4899290;29;20518;-67
2023/03/11 02:45:12;;;;;;;8.10;2.83;;;;;;;11.01;58.11;98782.56;4899373;29;20284;-67
2023/03/11 02:47:40;;;;;;;6.97;3.15;;;;;;;10.96;58.75;98780.00;4900167;29;20048;-67
2023/03/11 02:50:12;;;;;;;5.50;3.47;;;;;;;10.74;58.99;98774.41;4916009;29;20049;-67
2023/03/11 02:52:40;;;;;;;2.70;2.40;;;;;;;10.65;59.12;98776.34;4898940;29;20055;-67
2023/03/11 02:55:14;;;;;;;3.45;2.50;;;;;;;10.82;59.67;98770.06;4915877;29;20051;-67
2023/03/11 02:57:43;;;;;;;;;;;;;;;10.89;59.09;98775.81;4916475;29;20048;-67
2023/03/11 03:00:13;;;;;;;4.47;2.58;;;;;;;10.96;59.41;98769.81;4898908;29;19934;-68
2023/03/11 03:02:45;;;;;;;5.23;2.60;;;;;;;11.02;58.57;98782.22;4898960;29;20125;-67
2023/03/11 03:05:13;;;;;;;4.15;1.90;;;;;;;11.04;57.82;98765.47;4898894;29;20052;-67
2023/03/11 03:07:42;;;;;;;2.25;1.95;;;;;;;11.02;57.68;98773.22;4898871;29;20495;-67
2023/03/11 03:10:11;;;;;;;3.58;1.92;;;;;;;11.02;56.75;98774.03;4916921;29;20114;-67
2023/03/11 03:12:39;;;;;;;3.17;1.77;;;;;;;11.05;56.55;98769.78;4917553;29;20055;-67
2023/03/11 03:15:07;;;;;;;2.22;1.38;;;;;;;11.04;55.57;98770.16;4917442;29;20546;-67
2023/03/11 03:17:36;;;;;;;2.72;1.48;;;;;;;10.96;55.08;98767.09;4917659;29;20411;-68
2023/03/11 03:20:10;;;;;;;1.65;1.38;;;;;;;10.94;55.44;98772.09;4917265;29;20497;-67
2023/03/11 03:22:41;;;;;;;2.95;1.30;;;;;;;10.98;55.72;98774.97;4920201;29;20052;-67
2023/03/11 03:25:11;;;;;;;2.63;1.80;;;;;;;11.00;55.67;98781.75;4938413;29;20533;-67
2023/03/11 03:27:39;;;;;;;3.60;1.45;;;;;;;11.10;54.99;98796.22;4921170;29;20044;-67
2023/03/11 03:30:08;;;;;;;2.28;1.48;;;;;;;11.19;54.78;98805.19;4920961;29;20044;-67
2023/03/11 03:32:37;;;;;;;1.77;1.25;;;;;;;11.23;54.61;98810.81;4921218;29;20044;-67
2023/03/11 03:35:08;;;;;;;3.17;1.27;;;;;;;11.13;56.47;98811.97;4921283;29;20059;-67
2023/03/11 03:37:56;;;;;;;2.05;1.40;;;;;;;11.26;54.96;98785.50;4937629;29;20489;-68
2023/03/11 03:40:24;;;;;;;0.98;0.98;;;;;;;11.29;54.08;98773.88;4920747;29;20423;-67
2023/03/11 03:42:53;;;;;;;2.63;1.25;;;;;;;11.23;54.93;98767.81;4905512;29;20051;-67
2023/03/11 03:45:21;;;;;;;1.20;1.10;;;;;;;11.15;54.98;98749.50;4921232;29;20044;-67
2023/03/11 03:47:52;;;;;;;1.98;1.23;;;;;;;11.18;56.79;98756.25;4921286;29;20395;-67
2023/03/11 03:50:22;;;;;;;4.05;1.50;;;;;;;11.17;55.32;98755.44;4910486;29;20059;-68
2023/03/11 03:52:52;;;;;;;2.80;1.33;;;;;;;11.33;54.22;98774.06;4902036;29;20051;-67
2023/03/11 03:55:21;;;;;;;3.75;1.17;;;;;;;11.19;54.76;98777.00;4902050;29;20051;-68
2023/03/11 03:57:49;;;;;;;2.83;1.33;;;;;;;11.27;55.46;98768.75;4918928;29;20044;-67
2023/03/11 04:00:19;;;;;;;5.20;1.20;;;;;;;11.29;54.49;98771.97;4901974;29;20055;-67
2023/03/11 04:02:53;;;;;;;1.55;1.10;;;;;;;11.25;54.64;98771.00;4901942;29;20051;-67
2023/03/11 04:05:28;;;;;;;2.78;1.20;;;;;;;11.14;56.06;98773.31;4901897;29;20040;-67
2023/03/11 04:07:56;;;;;;;2.92;1.50;;;;;;;11.23;54.83;98777.94;4918779;29;20048;-67
2023/03/11 04:10:24;;;;;;;1.83;1.20;;;;;;;11.25;56.03;98776.47;4910860;29;20387;-67
2023/03/11 04:12:52;;;;;;;2.08;1.40;;;;;;;11.29;54.80;98782.91;4905004;29;20059;-67
2023/03/11 04:15:21;;;;;;;1.60;1.00;;;;;;;11.27;54.48;98801.63;4937601;29;20054;-67
2023/03/11 04:17:49;;;;;;;2.17;1.15;;;;;;;11.24;55.83;98812.44;4920328;29;20403;-67
2023/03/11 04:20:17;;;;;;;3.63;1.27;;;;;;;11.14;55.77;98817.13;4920075;29;20040;-67
2023/03/11 04:22:48;;;;;;;2.33;1.40;;;;;;;11.20;55.71;98816.94;4920526;29;20489;-67
2023/03/11 04:25:17;;;;;;;2.67;1.27;;;;;;;11.14;56.46;98824.53;4920407;29;20055;-67
2023/03/11 04:27:48;;;;;;;4.68;1.50;;;;;;;11.10;56.25;98820.84;4937342;29;20047;-67
2023/03/11 04:30:17;;;;;;;3.03;1.83;;;;;;;11.05;56.69;98826.50;4936968;29;20044;-67
2023/03/11 04:32:47;;;;;;;1.77;1.27;;;;;;;11.00;56.79;98839.22;4904241;29;20071;-67
2023/03/11 04:35:15;;;;;;;2.85;1.45;;;;;;;11.08;56.17;98845.81;4919904;29;20044;-68
2023/03/11 04:37:44;;;;;;;2.22;1.27;;;;;;;11.01;57.14;98845.50;4919893;29;20372;-67
2023/03/11 04:40:12;;;;;;;2.38;1.33;;;;;;;11.12;56.61;98833.09;4919885;29;20047;-67
2023/03/11 04:42:40;;;;;;;1.58;1.15;;;;;;;11.16;56.76;98839.50;4920140;29;20054;-67
2023/03/11 04:45:10;;;;;;;3.80;1.35;;;;;;;11.09;57.00;98854.84;4937046;29;20063;-68
2023/03/11 04:47:39;;;;;;;1.17;0.98;;;;;;;11.00;56.61;98847.44;4937116;29;20047;-67
2023/03/11 04:50:07;;;;;;;2.05;1.35;;;;;;;11.09;56.68;98860.31;4909338;29;20040;-68
2023/03/11 04:52:35;;;;;;;1.85;1.00;;;;;;;11.22;56.05;98873.00;4900844;29;20400;-67
2023/03/11 04:55:03;;;;;;;1.27;0.90;;;;;;;11.14;57.14;98852.72;4901097;29;20396;-68
2023/03/11 04:57:32;;;;;;;4.65;1.20;;;;;;;11.17;56.94;98851.25;4901092;29;20063;-68
2023/03/11 05:00:05;;;;;;;1.55;1.17;;;;;;;11.16;57.09;98838.72;4900777;29;20051;-68
2023/03/11 05:02:33;;;;;;;3.08;1.40;;;;;;;11.09;57.90;98822.78;4900913;29;20507;-67
2023/03/11 05:05:02;;;;;;;1.58;1.10;;;;;;;11.03;56.86;98813.13;4884831;29;20062;-67
2023/03/11 05:07:30;;;;;;;3.53;1.83;;;;;;;11.14;57.33;98819.84;4900801;29;20052;-67
2023/03/11 05:09:59;;;;;;;2.53;1.70;;;;;;;11.22;56.76;98815.50;4887311;29;20048;-68
2023/03/11 05:12:27;;;;;;;3.13;1.67;;;;;;;11.16;56.42;98800.38;4917350;29;20129;-67
2023/03/11 05:14:55;;;;;;;1.85;1.52;;;;;;;11.21;57.62;98808.41;4885151;29;20111;-68
2023/03/11 05:17:23;;;;;;;2.60;1.55;;;;;;;11.21;56.83;98813.06;4916358;29;20081;-68
2023/03/11 05:19:53;;;;;;;2.08;1.45;;;;;;;11.09;58.48;98800.88;4919281;29;20046;-67
2023/03/11 05:22:25;;;;;;;1.95;1.27;;;;;;;11.12;58.36;98804.88;4936272;29;20044;-67
2023/03/11 05:24:53;;;;;;;3.63;2.20;;;;;;;10.98;59.39;98805.09;4919451;29;20075;-67
2023/03/11 05:27:21;;;;;;;8.18;2.08;;;;;;;10.96;59.01;98812.84;4919652;29;20387;-68
2023/03/11 05:29:53;;;;;;;5.22;2.25;;;;;;;11.00;58.81;98820.06;4919033;29;20046;-67
2023/03/11 05:32:23;;;;;;;4.15;2.00;;;;;;;10.99;59.01;98823.94;4917739;29;20057;-67
2023/03/11 05:34:53;;;;;;;3.70;1.85;;;;;;;11.07;58.28;98824.22;4938439;29;20054;-67
2023/03/11 05:37:21;;;;;;;4.20;2.13;;;;;;;10.81;59.74;98819.63;4944774;29;20052;-66
2023/03/11 05:39:51;;;;;;;4.05;1.75;;;;;;;10.86;59.72;98827.66;4919050;29;20058;-67
2023/03/11 05:42:20;;;;;;;7.72;2.42;;;;;;;10.80;59.73;98857.13;4903243;29;20056;-67
2023/03/11 05:44:51;;;;;;;4.00;2.10;;;;;;;10.88;58.94;98878.22;4918987;29;20058;-67
2023/03/11 05:47:20;;;;;;;4.75;2.40;;;;;;;10.88;59.12;98880.13;4902592;29;20048;-66
2023/03/11 05:49:49;;;;;;;3.47;2.13;;;;;;;10.79;59.77;98873.88;4909268;29;20048;-67
2023/03/11 05:52:18;;;;;;;3.63;1.73;;;;;;;10.67;60.69;98861.66;4899981;29;20048;-67
2023/03/11 05:54:51;;;;;;;4.68;2.10;;;;;;;10.74;62.09;98853.75;4900530;29;20068;-67
2023/03/11 05:57:22;;;;;;;4.35;2.03;;;;;;;10.77;61.23;98851.50;4899641;29;20040;-67
2023/03/11 05:59:50;;;;;;;7.03;2.30;;;;;;;10.84;61.57;98838.13;4917725;29;20059;-67
2023/03/11 06:02:20;;;;;;;4.25;2.63;;;;;;;10.90;60.83;98858.72;4918285;29;20051;-68
2023/03/11 06:04:48;;;;;;;3.88;2.08;;;;;;;10.97;61.59;98872.72;4918492;29;20043;-67
2023/03/11 06:07:16;;;;;;;8.93;2.58;;;;;;;10.96;61.40;98884.00;4917766;29;20044;-68
2023/03/11 06:09:49;;;;;;;5.35;2.17;;;;;;;11.11;60.72;98886.19;4918362;29;20047;-68
2023/03/11 06:12:18;;;;;;;4.18;2.00;;;;;;;11.16;60.40;98871.56;4918283;29;20071;-68
2023/03/11 06:14:58;;;;;;;3.28;2.50;;;;;;;11.10;61.41;98861.91;4918143;29;20173;-68
2023/03/11 06:17:26;;;;;;;6.38;2.80;;;;;;;11.05;62.08;98854.66;4934539;29;20062;-67
2023/03/11 06:19:57;;;;;;;2.80;2.20;;;;;;;11.10;61.05;98840.00;4911088;29;20403;-67
2023/03/11 06:22:25;;;;;;;6.10;2.05;;;;;;;11.10;61.98;98829.06;4931418;29;20054;-67
2023/03/11 06:24:53;;;;;;;5.95;2.33;;;;;;;11.05;61.19;98842.91;4923725;29;20043;-68
2023/03/11 06:27:21;;;;;;;10.50;2.63;;;;;;;10.99;61.62;98837.63;4912198;29;20451;-68
2023/03/11 06:29:53;;;;;;;4.32;2.58;;;;;;;10.79;62.35;98846.53;4913870;29;20403;-68
2023/03/11 06:32:23;;;;;;;5.82;2.58;;;;;;;10.86;62.37;98863.25;4934846;29;20060;-69
2023/03/11 06:34:52;;;;;;;5.07;2.65;;;;;;;11.22;61.65;98864.78;4934808;29;20406;-68
2023/03/11 06:37:23;;;;;;;5.15;2.60;;;;;;;11.67;58.96;98860.75;4910266;29;20036;-67
2023/03/11 06:39:52;;;;;;;6.60;2.70;;;;;;;12.01;58.08;98880.06;4953113;29;20067;-68
2023/03/11 06:42:23;;;;;;;5.50;3.00;;;;;;;12.18;56.15;98879.19;4924662;29;20400;-67
2023/03/11 06:44:53;;;;;;;3.90;2.33;;;;;;;12.45;55.80;98871.59;4897467;29;20045;-67
2023/03/11 06:47:21;;;;;;;6.28;2.60;;;;;;;12.72;54.94;98869.41;4897882;29;20052;-67
2023/03/11 06:49:50;;;;;;;5.97;2.17;;;;;;;12.58;55.59;98888.13;4914341;29;20048;-67
2023/03/11 06:52:19;;;;;;;4.68;2.22;;;;;;;12.76;57.41;98886.03;4914617;29;20400;-67
2023/03/11 06:54:47;;;;;;;5.38;2.83;;;;;;;13.14;54.96;98890.50;4909534;29;20048;-68
2023/03/11 06:57:16;;;;;;;7.22;2.67;;;;;;;13.03;53.84;98908.56;4918174;29;20482;-68
2023/03/11 06:59:46;;;;;;;5.15;2.60;;;;;;;13.04;54.38;98910.16;4935906;29;20403;-68
2023/03/11 07:02:16;;;;;;;4.53;2.97;;;;;;;13.10;53.91;98911.53;4904839;29;20033;-68
2023/03/11 07:04:48;;;;;;;4.00;2.92;;;;;;;13.56;51.78;98921.78;4898846;29;20055;-68
2023/03/11 07:07:17;;;;;;;4.50;2.45;;;;;;;13.57;51.36;98920.63;4900459;29;20048;-69
2023/03/11 07:09:45;;;;;;;6.70;2.63;;;;;;;13.82;51.35;98918.72;4912252;29;20056;-70
2023/03/11 07:12:14;;;;;;;6.00;2.55;;;;;;;13.92;50.99;98919.41;4916210;29;20067;-70
2023/03/11 07:14:43;;;;;;;5.47;2.90;;;;;;;13.76;50.33;98916.53;4916237;29;20047;-69
2023/03/11 07:17:11;;;;;;;4.82;2.70;;;;;;;14.78;49.29;98917.72;4904485;29;20059;-69
2023/03/11 07:19:45;;;;;;;3.90;2.40;;;;;;;15.68;45.22;98937.81;4924284;29;20059;-71
2023/03/11 07:22:20;;;;;;;3.75;2.30;;;;;;;16.99;43.99;98944.38;4918873;29;20059;-69
2023/03/11 07:24:48;;;;;;;3.85;2.20;;;;;;;17.03;42.23;98948.03;4951544;29;20588;-71
2023/03/11 07:27:16;;;;;;;6.75;3.25;;;;;;;17.35;42.37;98941.50;4951478;29;20421;-69
2023/03/11 07:29:44;;;;;;;8.80;3.47;;;;;;;17.00;43.10;98934.91;4918069;29;20054;-70
2023/03/11 07:32:12;;;;;;;5.95;2.83;;;;;;;18.14;41.46;98944.09;4937326;29;20046;-70
2023/03/11 07:34:41;;;;;;;4.20;2.78;;;;;;;17.70;42.91;98939.78;4924118;29;20052;-71
2023/03/11 07:37:09;;;;;;;4.28;2.60;;;;;;;17.41;45.77;98936.50;4916861;29;20044;-80
2023/03/11 07:39:38;;;;;;;4.32;3.45;;;;;;;16.53;44.99;98934.72;4915230;29;20055;-78
2023/03/11 07:42:06;;;;;;;5.80;2.95;;;;;;;16.34;46.13;98932.75;4931597;29;20070;-79
2023/03/11 07:44:35;;;;;;;7.25;3.25;;;;;;;15.97;46.68;98939.38;4937627;29;20059;-78
2023/03/11 07:47:04;;;;;;;3.80;2.85;;;;;;;15.92;47.59;98942.41;4938516;29;20051;-77
2023/03/11 07:49:32;;;;;;;6.28;3.10;;;;;;;15.83;47.16;98934.28;4915412;29;20062;-78
2023/03/11 07:52:00;;;;;;;4.93;3.17;;;;;;;15.58;47.57;98933.63;4913136;29;20044;-77
2023/03/11 07:54:29;;;;;;;7.95;3.55;;;;;;;15.27;46.78;98943.44;4918339;29;20063;-78
2023/03/11 07:56:57;;;;;;;5.22;3.00;;;;;;;15.20;48.12;98946.03;4929442;29;20172;-78
2023/03/11 07:59:25;;;;;;;5.60;3.40;;;;;;;15.10;49.31;98955.59;4938491;29;20449;-78
2023/03/11 08:01:53;;;;;;;5.55;3.50;;;;;;;14.85;48.43;98955.66;4915660;29;20048;-77
2023/03/11 08:04:21;;;;;;;6.40;3.63;;;;;;;15.07;49.38;98954.34;4913418;29;20056;-77
2023/03/11 08:06:49;;;;;;;4.95;3.28;;;;;;;15.08;48.86;98953.19;4914176;29;20052;-79
2023/03/11 08:09:17;;;;;;;7.18;3.10;;;;;;;15.03;48.57;98945.97;4917424;29;20044;-77
2023/03/11 08:11:45;;;;;;;5.82;3.40;;;;;;;15.10;48.67;98944.56;4917685;29;20403;-77
2023/03/11 08:14:16;;;;;;;5.32;3.30;;;;;;;15.12;49.08;98958.78;4907469;29;20059;-78
2023/03/11 08:16:44;;;;;;;6.47;3.28;;;;;;;15.03;50.21;98986.47;4917935;29;20052;-78
2023/03/11 08:19:12;;;;;;;5.47;3.45;;;;;;;15.14;50.63;98987.59;4921050;29;20059;-78
2023/03/11 08:21:49;;;;;;;7.50;3.38;;;;;;;15.21;49.96;99002.72;4922330;29;20048;-78
2023/03/11 08:24:17;;;;;;;5.85;3.30;;;;;;;15.16;49.80;99009.28;4924226;29;20052;-79
2023/03/11 08:26:45;;;;;;;5.85;3.78;;;;;;;15.12;51.14;99008.38;4935099;29;20055;-71
2023/03/11 08:29:13;;;;;;;7.90;4.22;;;;;;;15.11;49.88;98999.31;4917104;29;20525;-69
2023/03/11 08:31:41;;;;;;;8.15;4.30;;;;;;;14.93;50.96;98960.22;4916114;29;20060;-69
2023/03/11 08:34:10;;;;;;;6.40;4.18;;;;;;;14.28;52.86;98928.00;4916097;29;20056;-69
2023/03/11 08:36:38;;;;;;;7.65;4.60;;;;;;;14.59;53.33;98976.94;4933665;29;20053;-68
2023/03/11 08:39:06;;;;;;;6.55;3.80;;;;;;;15.03;51.29;98976.28;4955370;29;20047;-69
2023/03/11 08:41:34;;;;;;;14.07;6.68;;;;;;;14.83;55.68;98967.03;4955628;29;20055;-70
2023/03/11 08:44:02;;;;;;;11.27;6.03;;;;;;;15.08;55.10;98968.91;4954711;29;20058;-69
2023/03/11 08:46:36;;;;;;;9.48;5.47;;;;;;;14.70;56.00;98973.66;4955309;29;20051;-69
2023/03/11 08:49:04;;;;;;;;;;;;;;;14.54;57.19;98968.09;4956491;29;20483;-69
2023/03/11 08:51:34;;;;;;;12.85;6.18;;;;;;;14.63;58.89;98960.50;4954697;29;20368;-69
2023/03/11 08:54:03;;;;;;;13.68;6.57;;;;;;;14.90;57.50;98970.00;4954990;29;20062;-69
2023/03/11 08:56:31;;;;;;;17.70;7.05;;;;;;;14.98;59.61;98981.22;4954937;29;20047;-69
2023/03/11 08:58:59;;;;;;;13.07;7.13;;;;;;;15.07;60.96;98989.34;4954825;29;20047;-70
2023/03/11 09:01:28;;;;;;;12.88;6.82;;;;;;;15.13;60.36;98974.16;4955191;29;20051;-70
2023/03/11 09:03:56;;;;;;;11.25;6.57;;;;;;;16.22;57.13;98979.75;4955653;29;20066;-69
2023/03/11 09:06:24;;;;;;;13.30;7.63;;;;;;;16.24;57.30;98988.50;4955010;29;20051;-70
2023/03/11 09:08:52;;;;;;;11.52;6.90;;;;;;;16.25;56.83;98992.84;4955051;29;20378;-70
2023/03/11 09:11:21;;;;;;;13.85;7.60;;;;;;;16.42;57.84;98979.84;4955567;29;20055;-69
2023/03/11 09:13:49;;;;;;;11.43;6.45;;;;;;;15.94;59.00;98972.38;4954843;29;20047;-69
2023/03/11 09:16:20;;;;;;;12.52;7.00;;;;;;;15.99;59.18;98972.91;4955383;29;20520;-70
2023/03/11 09:18:49;;;;;;;12.57;7.32;;;;;;;16.71;57.89;98980.47;4954531;28;20055;-69
2023/03/11 09:21:17;;;;;;;15.80;8.13;;;;;;;16.31;58.55;98974.03;4954415;29;20074;-69
2023/03/11 09:23:45;;;;;;;16.05;8.13;;;;;;;15.83;58.68;98972.88;4954476;29;20055;-69
2023/03/11 09:26:13;;;;;;;15.43;8.20;;;;;;;16.02;59.03;98970.63;4954356;29;20494;-69
2023/03/11 09:28:42;;;;;;;13.70;7.45;;;;;;;16.11;59.70;98973.97;4955335;29;20046;-69
2023/03/11 09:31:10;;;;;;;16.52;8.55;;;;;;;16.10;61.47;98973.19;4955245;29;20394;-69
2023/03/11 09:33:39;;;;;;;13.88;8.80;;;;;;;16.33;61.98;98978.03;4954273;29;20062;-70
2023/03/11 09:36:12;;;;;;;16.23;8.98;;;;;;;16.31;62.62;98980.38;4953824;29;20051;-70
2023/03/11 09:38:41;;;;;;;14.02;8.50;;;;;;;16.36;63.76;98971.81;4955065;29;20398;-69
2023/03/11 09:41:21;;;;;;;17.38;9.18;;;;;;;16.61;62.42;98979.06;4954201;29;20501;-70
2023/03/11 09:44:29;;;;;;;19.33;9.57;;;;;;;16.43;62.64;98993.25;4954290;29;20062;-69
2023/03/11 09:47:13;;;;;;;17.02;9.63;;;;;;;16.41;63.08;99003.09;4954944;29;20047;-68
2023/03/11 09:49:53;;;;;;;17.55;9.90;;;;;;;16.22;64.56;99002.63;4949823;29;20070;-67
2023/03/11 09:52:32;;;;;;;21.23;8.80;;;;;;;16.74;64.10;99001.84;4924501;29;20048;-71
2023/03/11 09:55:04;;;;;;;19.85;10.00;;;;;;;16.58;64.13;99010.97;4924665;29;20051;-71
2023/03/11 09:57:36;;;;;;;21.60;10.68;;;;;;;16.66;62.97;99011.91;4929446;29;20055;-71
2023/03/11 10:00:05;;;;;;;16.23;9.18;;;;;;;16.38;64.72;99007.34;4932231;29;20081;-71
2023/03/11 10:02:40;;;;;;;21.15;9.52;;;;;;;17.29;61.83;99009.34;4933018;29;20044;-72
2023/03/11 10:05:26;;;;;;;21.67;10.38;;;;;;;17.36;61.48;99003.97;4918262;29;20056;-71
2023/03/11 10:08:11;;;;;;;24.13;11.00;;;;;;;17.99;59.90;99012.22;4920572;29;20039;-71
2023/03/11 10:10:44;;;;;;;18.20;10.07;;;;;;;17.80;58.88;99004.75;4934364;29;20054;-71
2023/03/11 10:13:23;;;;;;;18.92;10.32;;;;;;;17.65;59.45;99012.78;4930184;29;20517;-72
2023/03/11 10:16:05;;;;;;;19.45;9.77;;;;;;;17.53;59.85;99021.25;4934103;29;20047;-71
2023/03/11 10:18:57;;;;;;;18.95;10.15;;;;;;;17.13;60.80;99026.81;4916066;29;20040;-71
2023/03/11 10:21:33;;;;;;;17.55;8.68;;;;;;;17.27;60.27;99031.03;4926724;29;20036;-71
2023/03/11 10:24:21;;;;;;;18.20;9.65;;;;;;;17.57;59.91;99035.94;4931134;29;20048;-71
2023/03/11 10:26:55;;;;;;;19.25;9.73;;;;;;;17.82;59.70;99035.63;4919087;29;20062;-71
2023/03/11 10:29:29;;;;;;;17.05;9.85;;;;;;;18.13;58.23;99044.88;4934334;29;20050;-72
2023/03/11 10:32:05;;;;;;;22.70;10.18;;;;;;;17.77;59.72;99045.03;4917006;29;20047;-71
2023/03/11 10:34:38;;;;;;;18.33;11.35;;;;;;;17.68;59.78;99050.78;4937712;29;20048;-71
2023/03/11 10:37:23;;;;;;;19.60;10.93;;;;;;;17.60;61.19;99046.31;4930353;29;20055;-71
2023/03/11 10:39:52;;;;;;;15.45;9.45;;;;;;;17.65;60.92;99054.28;4931268;29;20058;-70
2023/03/11 10:42:27;;;;;;;15.25;9.20;;;;;;;17.54;61.45;99062.38;4929665;29;20051;-71
2023/03/11 10:44:55;;;;;;;18.40;9.95;;;;;;;17.65;60.36;99059.81;4917659;29;20064;-71
2023/03/11 10:47:24;;;;;;;19.98;10.80;;;;;;;17.59;61.64;99064.84;4928944;29;20052;-72
2023/03/11 10:49:52;;;;;;;17.58;10.07;;;;;;;17.54;61.41;99056.84;4919359;29;20059;-71
2023/03/11 10:52:20;;;;;;;19.88;9.10;;;;;;;17.54;60.31;99058.81;4931155;29;20048;-71
2023/03/11 10:54:59;;;;;;;19.77;10.38;;;;;;;17.51;59.87;99059.53;4933770;29;20051;-73
2023/03/11 10:57:32;;;;;;;18.85;9.07;;;;;;;17.75;58.70;99060.41;4917305;29;20403;-72
2023/03/11 11:00:16;;;;;;;19.25;9.85;;;;;;;17.66;59.08;99055.91;4919314;29;20048;-71
2023/03/11 11:02:56;;;;;;;18.92;9.77;;;;;;;18.06;59.19;99058.63;4930431;29;20047;-72
2023/03/11 11:05:29;;;;;;;18.15;9.27;;;;;;;18.03;59.41;99062.88;4916842;29;20052;-72
2023/03/11 11:08:15;;;;;;;17.88;9.90;;;;;;;18.38;57.92;99055.63;4919614;29;20039;-72
2023/03/11 11:10:52;;;;;;;18.90;10.60;;;;;;;18.32;58.90;99060.66;4921928;29;20043;-72
2023/03/11 11:13:23;;;;;;;18.08;10.77;;;;;;;18.16;59.30;99057.19;4923150;29;20047;-72
2023/03/11 11:15:55;;;;;;;16.67;11.15;;;;;;;18.29;59.49;99071.66;4916706;29;20060;-73
2023/03/11 11:18:28;;;;;;;18.75;10.35;;;;;;;18.57;59.18;99068.56;4924664;29;20047;-70
2023/03/11 11:21:03;;;;;;;16.65;9.57;;;;;;;19.00;56.27;99076.72;4936738;29;20491;-72
2023/03/11 11:23:36;;;;;;;;;;;;;;;18.98;57.36;99069.94;4932740;29;20050;-72
2023/03/11 11:26:06;;;;;;;;;;;;;;;18.93;56.91;99068.31;4929796;29;19926;-71
2023/03/11 11:28:34;;;;;;;;;;;;;;;18.70;57.75;99060.03;4916321;29;20523;-72
2023/03/11 11:31:03;;;;;;;;;;;;;;;18.84;57.59;99065.00;4916145;29;19931;-71
2023/03/11 11:33:33;;;;;;;;;;;;;;;19.15;58.17;99068.63;4915387;29;19923;-72
2023/03/11 11:36:01;;;;;;;;;;;;;;;19.45;55.82;99049.22;4914969;29;19923;-72
2023/03/11 11:38:30;;;;;;;;;;;;;;;19.60;55.62;99044.63;4914001;29;19930;-72
2023/03/11 11:41:00;;;;;;;;;;;;;;;19.51;55.65;99027.50;4921198;29;19927;-72
2023/03/11 11:43:31;;;;;;;;;;;;;;;19.26;56.06;99035.50;4919322;29;20281;-70
2023/03/11 11:46:01;;;;;;;;;;;;;;;19.32;55.23;99040.31;4933344;29;19923;-72
2023/03/11 11:48:38;;;;;;;;;;;;;;;19.31;55.02;99035.97;4930335;29;19934;-71
2023/03/11 11:51:14;;;;;;;;;;;;;;;19.57;55.51;99033.50;4933757;29;19930;-73